createdAt,value
2019-02-15T00:00:21.636Z,962.19
2019-02-15T00:01:21.624Z,962.16
2019-02-15T00:02:21.614Z,962.15
2019-02-15T00:03:21.605Z,962.11
2019-02-15T00:04:21.593Z,962.10
2019-02-15T00:05:21.584Z,962.06
2019-02-15T00:06:21.571Z,962.05
2019-02-15T00:07:21.572Z,962.01
2019-02-15T00:08:21.553Z,962.03
2019-02-15T00:09:21.591Z,962.03
2019-02-15T00:10:21.531Z,962.07
2019-02-15T00:11:21.527Z,962.00
2019-02-15T00:12:21.509Z,962.01
2019-02-15T00:13:21.521Z,962.03
2019-02-15T00:14:21.490Z,962.07
2019-02-15T00:15:21.482Z,962.07
2019-02-15T00:16:21.470Z,962.06
2019-02-15T00:17:21.451Z,962.07
2019-02-15T00:18:21.450Z,962.05
2019-02-15T00:19:21.457Z,962.09
2019-02-15T00:20:21.427Z,962.08
2019-02-15T00:21:21.419Z,962.05
2019-02-15T00:22:21.406Z,962.04
2019-02-15T00:23:21.387Z,962.05
2019-02-15T00:24:21.387Z,962.03
2019-02-15T00:25:21.380Z,962.05
2019-02-15T00:26:21.369Z,962.00
2019-02-15T00:27:21.355Z,962.00
2019-02-15T00:28:21.344Z,961.97
2019-02-15T00:29:21.325Z,961.98
2019-02-15T00:30:21.324Z,961.93
2019-02-15T00:31:21.311Z,961.93
2019-02-15T00:32:21.303Z,961.89
2019-02-15T00:33:21.294Z,961.88
2019-02-15T00:34:21.283Z,961.90
2019-02-15T00:35:21.263Z,961.87
2019-02-15T00:36:21.262Z,961.86
2019-02-15T00:37:21.263Z,961.86
2019-02-15T00:38:21.243Z,961.83
2019-02-15T00:39:21.229Z,961.86
2019-02-15T00:40:21.219Z,961.86
2019-02-15T00:41:21.210Z,961.84
2019-02-15T00:42:21.200Z,961.86
2019-02-15T00:43:22.542Z,961.85
2019-02-15T00:44:21.177Z,961.81
2019-02-15T00:45:21.175Z,961.84
2019-02-15T00:46:21.160Z,961.87
2019-02-15T00:47:21.147Z,961.86
2019-02-15T00:48:21.135Z,961.86
2019-02-15T00:49:21.125Z,961.85
2019-02-15T00:50:21.116Z,961.84
2019-02-15T00:51:21.105Z,961.80
2019-02-15T00:52:21.108Z,961.83
2019-02-15T00:53:21.114Z,961.81
2019-02-15T00:54:21.073Z,961.81
2019-02-15T00:55:21.061Z,961.83
2019-02-15T00:56:21.050Z,961.84
2019-02-15T00:57:21.041Z,961.83
2019-02-15T00:58:21.032Z,961.80
2019-02-15T00:59:21.075Z,961.78
2019-02-15T01:00:21.015Z,961.78
2019-02-15T01:01:20.999Z,961.74
2019-02-15T01:02:20.995Z,961.74
2019-02-15T01:03:20.976Z,961.71
2019-02-15T01:04:20.966Z,961.75
2019-02-15T01:05:20.955Z,961.73
2019-02-15T01:06:20.947Z,961.73
2019-02-15T01:07:20.947Z,961.76
2019-02-15T01:08:20.924Z,961.73
2019-02-15T01:09:20.913Z,961.71
2019-02-15T01:10:20.924Z,961.73
2019-02-15T01:11:20.902Z,961.74
2019-02-15T01:12:20.889Z,961.74
2019-02-15T01:13:20.893Z,961.71
2019-02-15T01:14:20.876Z,961.73
2019-02-15T01:15:20.853Z,961.74
2019-02-15T01:16:20.839Z,961.73
2019-02-15T01:17:20.830Z,961.74
2019-02-15T01:18:20.820Z,961.73
2019-02-15T01:19:20.807Z,961.71
2019-02-15T01:20:20.796Z,961.71
2019-02-15T01:21:20.786Z,961.70
2019-02-15T01:22:20.773Z,961.68
2019-02-15T01:23:20.764Z,961.71
2019-02-15T01:24:20.753Z,961.67
2019-02-15T01:25:20.741Z,961.68
2019-02-15T01:26:20.735Z,961.70
2019-02-15T01:27:20.721Z,961.66
2019-02-15T01:28:20.700Z,961.72
2019-02-15T01:29:20.699Z,961.63
2019-02-15T01:30:20.694Z,961.67
2019-02-15T01:31:20.681Z,961.65
2019-02-15T01:32:20.668Z,961.68
2019-02-15T01:33:20.656Z,961.63
2019-02-15T01:34:20.645Z,961.61
2019-02-15T01:35:20.633Z,961.66
2019-02-15T01:36:20.651Z,961.60
2019-02-15T01:37:20.610Z,961.60
2019-02-15T01:38:20.607Z,961.65
2019-02-15T01:39:20.594Z,961.58
2019-02-15T01:40:20.580Z,961.61
2019-02-15T01:41:20.575Z,961.62
2019-02-15T01:42:20.560Z,961.61
2019-02-15T01:43:20.546Z,961.65
2019-02-15T01:44:20.537Z,961.65
2019-02-15T01:45:20.520Z,961.66
2019-02-15T01:46:20.516Z,961.65
2019-02-15T01:47:20.503Z,961.65
2019-02-15T01:48:20.493Z,961.67
2019-02-15T01:49:20.530Z,961.64
2019-02-15T01:50:20.473Z,961.66
2019-02-15T01:51:20.464Z,961.66
2019-02-15T01:52:20.455Z,961.64
2019-02-15T01:53:20.445Z,961.62
2019-02-15T01:54:20.431Z,961.65
2019-02-15T01:55:20.415Z,961.62
2019-02-15T01:56:20.405Z,961.62
2019-02-15T01:57:20.395Z,961.58
2019-02-15T01:58:20.385Z,961.53
2019-02-15T01:59:20.374Z,961.57
2019-02-15T02:00:20.362Z,961.57
2019-02-15T02:01:20.353Z,961.58
2019-02-15T02:02:20.341Z,961.57
2019-02-15T02:03:20.326Z,961.56
2019-02-15T02:04:20.317Z,961.62
2019-02-15T02:05:20.318Z,961.55
2019-02-15T02:06:20.296Z,961.54
2019-02-15T02:07:20.284Z,961.54
2019-02-15T02:08:20.276Z,961.54
2019-02-15T02:09:20.256Z,961.52
2019-02-15T02:10:20.252Z,961.54
2019-02-15T02:11:20.263Z,961.53
2019-02-15T02:12:20.230Z,961.53
2019-02-15T02:13:20.219Z,961.49
2019-02-15T02:14:20.207Z,961.48
2019-02-15T02:15:20.190Z,961.50
2019-02-15T02:16:20.183Z,961.48
2019-02-15T02:17:20.177Z,961.45
2019-02-15T02:18:20.187Z,961.46
2019-02-15T02:19:20.150Z,961.46
2019-02-15T02:20:20.131Z,961.49
2019-02-15T02:21:20.127Z,961.46
2019-02-15T02:22:20.136Z,961.46
2019-02-15T02:23:20.111Z,961.44
2019-02-15T02:24:20.094Z,961.45
2019-02-15T02:25:20.084Z,961.42
2019-02-15T02:26:20.073Z,961.46
2019-02-15T02:27:20.063Z,961.43
2019-02-15T02:28:20.073Z,961.44
2019-02-15T02:29:20.042Z,961.45
2019-02-15T02:30:20.024Z,961.44
2019-02-15T02:31:20.017Z,961.40
2019-02-15T02:32:20.025Z,961.34
2019-02-15T02:33:19.987Z,961.33
2019-02-15T02:34:19.985Z,961.30
2019-02-15T02:35:19.973Z,961.26
2019-02-15T02:36:19.961Z,961.34
2019-02-15T02:37:19.938Z,961.30
2019-02-15T02:38:19.949Z,961.26
2019-02-15T02:39:20.033Z,961.27
2019-02-15T02:40:19.919Z,961.25
2019-02-15T02:41:19.907Z,961.23
2019-02-15T02:42:19.901Z,961.17
2019-02-15T02:43:19.880Z,961.23
2019-02-15T02:44:19.869Z,961.18
2019-02-15T02:45:19.860Z,961.24
2019-02-15T02:46:19.849Z,961.17
2019-02-15T02:47:19.835Z,961.20
2019-02-15T02:48:19.814Z,961.17
2019-02-15T02:49:19.812Z,961.21
2019-02-15T02:50:19.793Z,961.15
2019-02-15T02:51:19.798Z,961.11
2019-02-15T02:52:19.788Z,961.12
2019-02-15T02:53:19.768Z,961.12
2019-02-15T02:54:19.749Z,961.03
2019-02-15T02:55:19.741Z,961.06
2019-02-15T02:56:19.730Z,961.06
2019-02-15T02:57:19.725Z,961.06
2019-02-15T02:58:19.731Z,961.04
2019-02-15T02:59:19.698Z,961.05
2019-02-15T03:00:19.687Z,961.05
2019-02-15T03:01:19.674Z,961.08
2019-02-15T03:02:19.681Z,961.05
2019-02-15T03:03:19.653Z,961.03
2019-02-15T03:04:19.641Z,961.04
2019-02-15T03:05:19.658Z,961.06
2019-02-15T03:06:19.609Z,961.04
2019-02-15T03:07:19.606Z,961.05
2019-02-15T03:08:19.595Z,961.05
2019-02-15T03:09:19.584Z,961.05
2019-02-15T03:10:19.574Z,961.07
2019-02-15T03:11:19.554Z,961.11
2019-02-15T03:12:19.550Z,961.11
2019-02-15T03:13:19.558Z,961.13
2019-02-15T03:14:19.536Z,961.10
2019-02-15T03:15:19.516Z,961.11
2019-02-15T03:16:19.509Z,961.09
2019-02-15T03:17:19.492Z,961.12
2019-02-15T03:18:19.483Z,961.12
2019-02-15T03:19:19.483Z,961.06
2019-02-15T03:20:30.544Z,961.08
2019-02-15T03:21:19.542Z,961.07
2019-02-15T03:22:19.438Z,961.12
2019-02-15T03:23:19.421Z,961.10
2019-02-15T03:24:19.418Z,961.13
2019-02-15T03:25:19.401Z,961.12
2019-02-15T03:26:19.390Z,961.07
2019-02-15T03:27:19.379Z,961.11
2019-02-15T03:28:19.373Z,961.12
2019-02-15T03:29:19.354Z,961.14
2019-02-15T03:30:19.987Z,961.16
2019-02-15T03:31:19.335Z,961.14
2019-02-15T03:32:19.322Z,961.11
2019-02-15T03:33:19.324Z,961.11
2019-02-15T03:34:19.294Z,961.15
2019-02-15T03:35:19.293Z,961.17
2019-02-15T03:36:19.276Z,961.23
2019-02-15T03:37:19.264Z,961.20
2019-02-15T03:38:19.256Z,961.22
2019-02-15T03:39:19.232Z,961.26
2019-02-15T03:40:19.231Z,961.22
2019-02-15T03:41:19.215Z,961.16
2019-02-15T03:42:19.208Z,961.14
2019-02-15T03:43:19.216Z,961.16
2019-02-15T03:44:22.297Z,961.14
2019-02-15T03:45:19.165Z,961.14
2019-02-15T03:46:19.164Z,961.10
2019-02-15T03:47:19.157Z,961.08
2019-02-15T03:48:19.138Z,961.09
2019-02-15T03:49:19.146Z,961.08
2019-02-15T03:50:19.114Z,961.07
2019-02-15T03:51:19.100Z,961.09
2019-02-15T03:52:19.093Z,961.09
2019-02-15T03:53:19.088Z,961.11
2019-02-15T03:54:19.079Z,961.09
2019-02-15T03:55:19.058Z,961.12
2019-02-15T03:56:19.047Z,961.15
2019-02-15T03:57:19.036Z,961.13
2019-02-15T03:58:19.028Z,961.10
2019-02-15T03:59:19.012Z,961.12
2019-02-15T04:00:19.001Z,961.13
2019-02-15T04:01:18.995Z,961.11
2019-02-15T04:02:18.981Z,961.13
2019-02-15T04:03:18.966Z,961.14
2019-02-15T04:04:18.970Z,961.13
2019-02-15T04:05:18.964Z,961.10
2019-02-15T04:06:18.968Z,961.10
2019-02-15T04:07:18.930Z,961.08
2019-02-15T04:08:18.912Z,961.12
2019-02-15T04:09:18.912Z,961.15
2019-02-15T04:10:18.887Z,961.16
2019-02-15T04:11:18.876Z,961.17
2019-02-15T04:12:18.867Z,961.11
2019-02-15T04:13:18.868Z,961.12
2019-02-15T04:14:18.841Z,961.10
2019-02-15T04:15:18.828Z,961.13
2019-02-15T04:16:18.818Z,961.12
2019-02-15T04:17:18.807Z,961.06
2019-02-15T04:18:18.802Z,961.04
2019-02-15T04:19:18.778Z,961.06
2019-02-15T04:20:18.771Z,961.07
2019-02-15T04:21:18.762Z,961.11
2019-02-15T04:22:18.750Z,961.12
2019-02-15T04:23:18.740Z,961.07
2019-02-15T04:24:18.723Z,961.10
2019-02-15T04:25:18.713Z,961.06
2019-02-15T04:26:18.704Z,961.07
2019-02-15T04:27:18.694Z,961.08
2019-02-15T04:28:18.704Z,961.11
2019-02-15T04:29:18.672Z,961.10
2019-02-15T04:30:18.662Z,961.02
2019-02-15T04:31:18.662Z,961.08
2019-02-15T04:32:18.637Z,961.13
2019-02-15T04:33:18.623Z,961.11
2019-02-15T04:34:18.612Z,961.14
2019-02-15T04:35:18.599Z,961.15
2019-02-15T04:36:18.590Z,961.11
2019-02-15T04:37:18.611Z,961.12
2019-02-15T04:38:18.565Z,961.13
2019-02-15T04:39:18.553Z,961.12
2019-02-15T04:40:18.542Z,961.06
2019-02-15T04:41:18.532Z,961.08
2019-02-15T04:42:18.518Z,961.07
2019-02-15T04:43:18.509Z,961.08
2019-02-15T04:44:18.501Z,961.10
2019-02-15T04:45:18.486Z,961.07
2019-02-15T04:46:18.477Z,961.09
2019-02-15T04:47:18.456Z,961.09
2019-02-15T04:48:18.444Z,961.07
2019-02-15T04:49:18.458Z,961.04
2019-02-15T04:50:18.428Z,961.05
2019-02-15T04:51:18.458Z,961.04
2019-02-15T04:52:18.406Z,961.01
2019-02-15T04:53:18.389Z,960.98
2019-02-15T04:54:18.381Z,960.98
2019-02-15T04:55:18.371Z,960.96
2019-02-15T04:56:18.369Z,960.95
2019-02-15T04:57:18.347Z,960.98
2019-02-15T04:58:18.339Z,960.97
2019-02-15T04:59:18.323Z,960.96
2019-02-15T05:00:18.317Z,960.97
2019-02-15T05:01:18.301Z,960.95
2019-02-15T05:02:18.289Z,960.99
2019-02-15T05:03:19.514Z,960.96
2019-02-15T05:04:18.265Z,960.99
2019-02-15T05:05:18.256Z,960.95
2019-02-15T05:06:18.268Z,960.94
2019-02-15T05:07:18.230Z,960.92
2019-02-15T05:08:18.218Z,960.89
2019-02-15T05:09:18.205Z,960.93
2019-02-15T05:10:18.244Z,960.87
2019-02-15T05:11:18.185Z,960.91
2019-02-15T05:12:18.175Z,960.89
2019-02-15T05:13:18.161Z,960.88
2019-02-15T05:14:18.148Z,960.87
2019-02-15T05:15:18.138Z,960.87
2019-02-15T05:16:18.126Z,960.82
2019-02-15T05:17:18.114Z,960.84
2019-02-15T05:18:18.106Z,960.81
2019-02-15T05:19:18.092Z,960.84
2019-02-15T05:20:18.079Z,960.83
2019-02-15T05:21:18.069Z,960.86
2019-02-15T05:22:18.057Z,960.85
2019-02-15T05:23:18.043Z,960.87
2019-02-15T05:24:18.030Z,960.91
2019-02-15T05:25:18.024Z,960.96
2019-02-15T05:26:18.006Z,960.97
2019-02-15T05:27:17.999Z,960.94
2019-02-15T05:28:17.987Z,960.96
2019-02-15T05:29:17.975Z,960.99
2019-02-15T05:30:17.962Z,961.00
2019-02-15T05:31:17.946Z,961.01
2019-02-15T05:32:17.937Z,961.05
2019-02-15T05:33:17.931Z,961.06
2019-02-15T05:34:17.916Z,961.02
2019-02-15T05:35:17.929Z,961.04
2019-02-15T05:36:17.898Z,961.03
2019-02-15T05:37:17.882Z,961.07
2019-02-15T05:38:17.870Z,961.08
2019-02-15T05:39:17.882Z,961.06
2019-02-15T05:40:17.846Z,961.06
2019-02-15T05:41:17.848Z,961.05
2019-02-15T05:42:17.825Z,961.10
2019-02-15T05:43:17.807Z,961.04
2019-02-15T05:44:17.801Z,961.09
2019-02-15T05:45:17.789Z,961.07
2019-02-15T05:46:17.776Z,961.06
2019-02-15T05:47:17.763Z,961.07
2019-02-15T05:48:17.752Z,961.09
2019-02-15T05:49:17.740Z,961.06
2019-02-15T05:50:17.741Z,961.04
2019-02-15T05:51:17.726Z,961.08
2019-02-15T05:52:17.748Z,961.04
2019-02-15T05:53:17.702Z,961.07
2019-02-15T05:54:17.685Z,961.01
2019-02-15T05:55:17.679Z,961.03
2019-02-15T05:56:17.660Z,961.03
2019-02-15T05:57:17.647Z,961.07
2019-02-15T05:58:17.635Z,961.12
2019-02-15T05:59:17.617Z,961.12
2019-02-15T06:00:17.619Z,961.10
2019-02-15T06:01:17.602Z,961.11
2019-02-15T06:02:17.588Z,961.07
2019-02-15T06:03:17.584Z,961.12
2019-02-15T06:04:17.571Z,961.14
2019-02-15T06:05:17.550Z,961.17
2019-02-15T06:06:17.541Z,961.17
2019-02-15T06:07:17.528Z,961.17
2019-02-15T06:08:17.517Z,961.19
2019-02-15T06:09:17.507Z,961.22
2019-02-15T06:10:17.497Z,961.26
2019-02-15T06:11:17.479Z,961.24
2019-02-15T06:12:17.472Z,961.24
2019-02-15T06:13:17.459Z,961.27
2019-02-15T06:14:17.445Z,961.29
2019-02-15T06:15:17.432Z,961.33
2019-02-15T06:16:17.417Z,961.29
2019-02-15T06:17:17.404Z,961.29
2019-02-15T06:18:17.431Z,961.30
2019-02-15T06:19:17.387Z,961.32
2019-02-15T06:20:17.379Z,961.33
2019-02-15T06:21:17.354Z,961.32
2019-02-15T06:22:17.359Z,961.33
2019-02-15T06:23:17.338Z,961.38
2019-02-15T06:24:17.329Z,961.37
2019-02-15T06:25:17.317Z,961.35
2019-02-15T06:26:17.306Z,961.35
2019-02-15T06:27:17.293Z,961.35
2019-02-15T06:28:17.285Z,961.40
2019-02-15T06:29:17.270Z,961.37
2019-02-15T06:30:17.253Z,961.37
2019-02-15T06:31:17.245Z,961.33
2019-02-15T06:32:17.235Z,961.33
2019-02-15T06:33:17.226Z,961.36
2019-02-15T06:34:17.209Z,961.38
2019-02-15T06:35:17.205Z,961.39
2019-02-15T06:36:17.187Z,961.37
2019-02-15T06:37:17.177Z,961.43
2019-02-15T06:38:17.162Z,961.40
2019-02-15T06:39:17.150Z,961.45
2019-02-15T06:40:17.139Z,961.45
2019-02-15T06:41:17.128Z,961.40
2019-02-15T06:42:17.121Z,961.37
2019-02-15T06:43:17.095Z,961.42
2019-02-15T06:44:17.094Z,961.39
2019-02-15T06:45:24.214Z,961.40
2019-02-15T06:46:17.088Z,961.44
2019-02-15T06:47:17.070Z,961.38
2019-02-15T06:48:17.060Z,961.44
2019-02-15T06:49:17.032Z,961.45
2019-02-15T06:50:17.029Z,961.45
2019-02-15T06:51:17.031Z,961.46
2019-02-15T06:52:17.008Z,961.44
2019-02-15T06:53:17.000Z,961.49
2019-02-15T06:54:16.986Z,961.49
2019-02-15T06:55:16.972Z,961.49
2019-02-15T06:56:16.966Z,961.51
2019-02-15T06:57:16.965Z,961.56
2019-02-15T06:58:16.945Z,961.56
2019-02-15T06:59:16.932Z,961.52
2019-02-15T07:00:16.938Z,961.53
2019-02-15T07:01:16.913Z,961.50
2019-02-15T07:02:16.906Z,961.54
2019-02-15T07:03:16.891Z,961.52
2019-02-15T07:04:16.883Z,961.55
2019-02-15T07:05:16.876Z,961.50
2019-02-15T07:06:16.860Z,961.51
2019-02-15T07:07:17.328Z,961.50
2019-02-15T07:08:16.844Z,961.48
2019-02-15T07:09:16.877Z,961.47
2019-02-15T07:10:16.845Z,961.53
2019-02-15T07:11:16.820Z,961.46
2019-02-15T07:12:16.812Z,961.51
2019-02-15T07:13:16.810Z,961.51
2019-02-15T07:14:16.798Z,961.49
2019-02-15T07:15:16.784Z,961.51
2019-02-15T07:16:16.779Z,961.58
2019-02-15T07:17:16.775Z,961.55
2019-02-15T07:18:16.767Z,961.55
2019-02-15T07:19:16.757Z,961.54
2019-02-15T07:20:16.753Z,961.57
2019-02-15T07:21:16.730Z,961.53
2019-02-15T07:22:16.733Z,961.59
2019-02-15T07:23:16.725Z,961.61
2019-02-15T07:24:16.719Z,961.63
2019-02-15T07:25:16.715Z,961.59
2019-02-15T07:26:16.725Z,961.63
2019-02-15T07:27:16.699Z,961.60
2019-02-15T07:28:16.695Z,961.61
2019-02-15T07:29:16.687Z,961.63
2019-02-15T07:30:16.679Z,961.60
2019-02-15T07:31:16.688Z,961.65
2019-02-15T07:32:16.658Z,961.65
2019-02-15T07:33:16.665Z,961.64
2019-02-15T07:34:16.656Z,961.67
2019-02-15T07:35:16.649Z,961.59
2019-02-15T07:36:16.641Z,961.59
2019-02-15T07:37:16.640Z,961.57
2019-02-15T07:38:16.633Z,961.58
2019-02-15T07:39:16.627Z,961.59
2019-02-15T07:40:16.624Z,961.57
2019-02-15T07:41:16.615Z,961.52
2019-02-15T07:42:16.630Z,961.55
2019-02-15T07:43:16.604Z,961.53
2019-02-15T07:44:16.600Z,961.52
2019-02-15T07:45:17.877Z,961.57
2019-02-15T07:46:16.599Z,961.53
2019-02-15T07:47:16.589Z,961.50
2019-02-15T07:48:16.579Z,961.54
2019-02-15T07:49:16.577Z,961.57
2019-02-15T07:50:16.573Z,961.61
2019-02-15T07:51:16.566Z,961.62
2019-02-15T07:52:16.562Z,961.61
2019-02-15T07:53:16.557Z,961.65
2019-02-15T07:54:16.553Z,961.64
2019-02-15T07:55:16.541Z,961.64
2019-02-15T07:56:16.540Z,961.67
2019-02-15T07:57:16.541Z,961.60
2019-02-15T07:58:16.538Z,961.64
2019-02-15T07:59:16.533Z,961.64
2019-02-15T08:00:16.530Z,961.66
2019-02-15T08:01:16.527Z,961.68
2019-02-15T08:02:16.528Z,961.67
2019-02-15T08:03:16.519Z,961.69
2019-02-15T08:04:16.523Z,961.61
2019-02-15T08:05:16.516Z,961.65
2019-02-15T08:06:16.510Z,961.64
2019-02-15T08:07:16.519Z,961.68
2019-02-15T08:08:16.504Z,961.68
2019-02-15T08:09:16.501Z,961.62
2019-02-15T08:10:16.497Z,961.65
2019-02-15T08:11:16.498Z,961.70
2019-02-15T08:12:16.498Z,961.66
2019-02-15T08:13:16.491Z,961.70
2019-02-15T08:14:17.702Z,961.66
2019-02-15T08:15:16.487Z,961.65
2019-02-15T08:16:16.485Z,961.67
2019-02-15T08:17:16.481Z,961.61
2019-02-15T08:18:16.485Z,961.59
2019-02-15T08:19:16.499Z,961.56
2019-02-15T08:20:16.477Z,961.54
2019-02-15T08:21:16.477Z,961.60
2019-02-15T08:22:16.472Z,961.52
2019-02-15T08:23:16.474Z,961.53
2019-02-15T08:24:16.472Z,961.53
2019-02-15T08:25:16.472Z,961.54
2019-02-15T08:26:16.469Z,961.56
2019-02-15T08:27:16.466Z,961.61
2019-02-15T08:28:16.463Z,961.62
2019-02-15T08:29:16.465Z,961.63
2019-02-15T08:30:16.467Z,961.65
2019-02-15T08:31:16.476Z,961.64
2019-02-15T08:32:16.467Z,961.65
2019-02-15T08:33:16.469Z,961.70
2019-02-15T08:34:16.469Z,961.64
2019-02-15T08:35:16.472Z,961.61
2019-02-15T08:36:16.456Z,961.65
2019-02-15T08:37:16.469Z,961.63
2019-02-15T08:38:16.468Z,961.66
2019-02-15T08:39:16.468Z,961.64
2019-02-15T08:40:16.471Z,961.68
2019-02-15T08:41:16.471Z,961.70
2019-02-15T08:42:16.471Z,961.67
2019-02-15T08:43:16.483Z,961.69
2019-02-15T08:44:16.468Z,961.69
2019-02-15T08:45:16.470Z,961.71
2019-02-15T08:46:16.474Z,961.71
2019-02-15T08:47:16.471Z,961.72
2019-02-15T08:48:16.474Z,961.71
2019-02-15T08:49:16.480Z,961.70
2019-02-15T08:50:16.474Z,961.71
2019-02-15T08:51:16.474Z,961.70
2019-02-15T08:52:16.476Z,961.71
2019-02-15T08:53:16.483Z,961.68
2019-02-15T08:54:16.479Z,961.70
2019-02-15T08:55:16.477Z,961.71
2019-02-15T08:56:16.479Z,961.76
2019-02-15T08:57:16.486Z,961.76
2019-02-15T08:58:16.479Z,961.75
2019-02-15T08:59:16.490Z,961.74
2019-02-15T09:00:16.480Z,961.74
2019-02-15T09:01:16.482Z,961.75
2019-02-15T09:02:16.492Z,961.72
2019-02-15T09:03:16.486Z,961.70
2019-02-15T09:04:16.478Z,961.73
2019-02-15T09:05:16.488Z,961.72
2019-02-15T09:06:16.493Z,961.68
2019-02-15T09:07:16.487Z,961.66
2019-02-15T09:08:16.493Z,961.69
2019-02-15T09:09:16.488Z,961.69
2019-02-15T09:10:16.489Z,961.71
2019-02-15T09:11:16.491Z,961.72
2019-02-15T09:12:16.494Z,961.76
2019-02-15T09:13:16.529Z,961.70
2019-02-15T09:14:16.481Z,961.69
2019-02-15T09:15:16.492Z,961.69
2019-02-15T09:16:16.491Z,961.70
2019-02-15T09:17:16.490Z,961.67
2019-02-15T09:18:16.492Z,961.61
2019-02-15T09:19:16.497Z,961.68
2019-02-15T09:20:16.497Z,961.70
2019-02-15T09:21:16.500Z,961.74
2019-02-15T09:22:16.499Z,961.78
2019-02-15T09:23:16.509Z,961.78
2019-02-15T09:24:16.492Z,961.79
2019-02-15T09:25:16.506Z,961.80
2019-02-15T09:26:18.427Z,961.81
2019-02-15T09:27:16.508Z,961.79
2019-02-15T09:28:16.514Z,961.78
2019-02-15T09:29:16.510Z,961.77
2019-02-15T09:30:16.513Z,961.75
2019-02-15T09:31:16.515Z,961.79
2019-02-15T09:32:16.515Z,961.78
2019-02-15T09:33:16.522Z,961.77
2019-02-15T09:34:16.529Z,961.80
2019-02-15T09:35:16.516Z,961.78
2019-02-15T09:36:16.534Z,961.80
2019-02-15T09:37:16.531Z,961.84
2019-02-15T09:38:16.526Z,961.81
2019-02-15T09:39:16.531Z,961.78
2019-02-15T09:40:16.536Z,961.77
2019-02-15T09:41:16.550Z,961.76
2019-02-15T09:42:16.560Z,961.81
2019-02-15T09:43:16.543Z,961.82
2019-02-15T09:44:16.557Z,961.78
2019-02-15T09:45:16.568Z,961.80
2019-02-15T09:46:19.953Z,961.81
2019-02-15T09:47:16.553Z,961.81
2019-02-15T09:48:16.556Z,961.80
2019-02-15T09:49:16.562Z,961.83
2019-02-15T09:50:16.563Z,961.82
2019-02-15T09:51:16.568Z,961.83
2019-02-15T09:52:16.567Z,961.85
2019-02-15T09:53:16.583Z,961.83
2019-02-15T09:54:16.577Z,961.84
2019-02-15T09:55:16.579Z,961.82
2019-02-15T09:56:16.582Z,961.82
2019-02-15T09:57:16.583Z,961.78
2019-02-15T09:58:16.647Z,961.74
2019-02-15T09:59:16.591Z,961.76
2019-02-15T10:00:16.604Z,961.72
2019-02-15T10:01:16.598Z,961.77
2019-02-15T10:02:16.596Z,961.73
2019-02-15T10:03:16.610Z,961.78
2019-02-15T10:04:16.609Z,961.79
2019-02-15T10:05:16.608Z,961.80
2019-02-15T10:06:16.618Z,961.77
2019-02-15T10:07:16.624Z,961.77
2019-02-15T10:08:16.623Z,961.80
2019-02-15T10:09:16.627Z,961.79
2019-02-15T10:10:16.640Z,961.81
2019-02-15T10:11:16.633Z,961.81
2019-02-15T10:12:16.642Z,961.85
2019-02-15T10:13:16.645Z,961.84
2019-02-15T10:14:16.650Z,961.86
2019-02-15T10:15:16.655Z,961.84
2019-02-15T10:16:16.660Z,961.86
2019-02-15T10:17:16.666Z,961.85
2019-02-15T10:18:16.669Z,961.87
2019-02-15T10:19:22.415Z,961.86
2019-02-15T10:20:16.675Z,961.87
2019-02-15T10:21:16.680Z,961.90
2019-02-15T10:22:16.684Z,961.92
2019-02-15T10:23:16.689Z,961.92
2019-02-15T10:24:16.696Z,961.89
2019-02-15T10:25:16.698Z,961.92
2019-02-15T10:26:16.706Z,961.92
2019-02-15T10:27:16.706Z,961.92
2019-02-15T10:28:16.715Z,961.90
2019-02-15T10:29:16.717Z,961.88
2019-02-15T10:30:16.723Z,961.86
2019-02-15T10:31:16.743Z,961.86
2019-02-15T10:32:16.731Z,961.89
2019-02-15T10:33:16.735Z,961.90
2019-02-15T10:34:16.733Z,961.87
2019-02-15T10:35:16.749Z,961.89
2019-02-15T10:36:18.827Z,961.87
2019-02-15T10:37:16.759Z,961.86
2019-02-15T10:38:16.761Z,961.88
2019-02-15T10:39:16.768Z,961.90
2019-02-15T10:40:16.770Z,961.83
2019-02-15T10:41:16.777Z,961.83
2019-02-15T10:42:16.782Z,961.82
2019-02-15T10:43:16.774Z,961.79
2019-02-15T10:44:16.784Z,961.80
2019-02-15T10:45:16.794Z,961.81
2019-02-15T10:46:16.789Z,961.78
2019-02-15T10:47:24.663Z,961.78
2019-02-15T10:48:16.808Z,961.80
2019-02-15T10:49:16.813Z,961.75
2019-02-15T10:50:16.820Z,961.79
2019-02-15T10:51:16.826Z,961.76
2019-02-15T10:52:16.826Z,961.74
2019-02-15T10:53:16.840Z,961.74
2019-02-15T10:54:16.836Z,961.69
2019-02-15T10:55:16.839Z,961.71
2019-02-15T10:56:16.846Z,961.68
2019-02-15T10:57:16.852Z,961.69
2019-02-15T10:58:16.857Z,961.70
2019-02-15T10:59:16.898Z,961.64
2019-02-15T11:00:16.888Z,961.65
2019-02-15T11:01:16.874Z,961.65
2019-02-15T11:02:16.889Z,961.66
2019-02-15T11:03:16.886Z,961.64
2019-02-15T11:04:16.885Z,961.62
2019-02-15T11:05:16.897Z,961.60
2019-02-15T11:06:16.902Z,961.64
2019-02-15T11:07:16.906Z,961.61
2019-02-15T11:08:16.930Z,961.60
2019-02-15T11:09:16.914Z,961.60
2019-02-15T11:10:16.919Z,961.58
2019-02-15T11:11:16.926Z,961.63
2019-02-15T11:12:16.931Z,961.58
2019-02-15T11:13:16.935Z,961.58
2019-02-15T11:14:16.957Z,961.56
2019-02-15T11:15:16.947Z,961.54
2019-02-15T11:16:16.951Z,961.57
2019-02-15T11:17:16.958Z,961.59
2019-02-15T11:18:16.962Z,961.59
2019-02-15T11:19:16.966Z,961.55
2019-02-15T11:20:16.972Z,961.58
2019-02-15T11:21:16.985Z,961.56
2019-02-15T11:22:16.983Z,961.55
2019-02-15T11:23:16.989Z,961.58
2019-02-15T11:24:16.987Z,961.50
2019-02-15T11:25:17.000Z,961.51
2019-02-15T11:26:24.597Z,961.49
2019-02-15T11:27:17.006Z,961.49
2019-02-15T11:28:17.015Z,961.46
2019-02-15T11:29:17.034Z,961.42
2019-02-15T11:30:17.024Z,961.45
2019-02-15T11:31:17.169Z,961.42
2019-02-15T11:32:17.029Z,961.41
2019-02-15T11:33:17.037Z,961.38
2019-02-15T11:34:17.042Z,961.38
2019-02-15T11:35:17.046Z,961.42
2019-02-15T11:36:17.053Z,961.41
2019-02-15T11:37:17.058Z,961.42
2019-02-15T11:38:17.062Z,961.37
2019-02-15T11:39:17.065Z,961.33
2019-02-15T11:40:17.071Z,961.32
2019-02-15T11:41:17.078Z,961.33
2019-02-15T11:42:17.088Z,961.31
2019-02-15T11:43:17.083Z,961.31
2019-02-15T11:44:17.092Z,961.32
2019-02-15T11:45:17.097Z,961.31
2019-02-15T11:46:17.102Z,961.28
2019-02-15T11:47:17.105Z,961.29
2019-02-15T11:48:17.111Z,961.26
2019-02-15T11:49:17.113Z,961.32
2019-02-15T11:50:17.121Z,961.30
2019-02-15T11:51:17.118Z,961.28
2019-02-15T11:52:17.125Z,961.25
2019-02-15T11:53:17.138Z,961.24
2019-02-15T11:54:23.334Z,961.25
2019-02-15T11:55:17.145Z,961.26
2019-02-15T11:56:17.152Z,961.22
2019-02-15T11:57:17.157Z,961.24
2019-02-15T11:58:17.161Z,961.22
2019-02-15T11:59:17.166Z,961.23
2019-02-15T12:00:18.417Z,961.24
2019-02-15T12:01:17.181Z,961.22
2019-02-15T12:02:17.181Z,961.20
2019-02-15T12:03:17.196Z,961.19
2019-02-15T12:04:17.190Z,961.16
2019-02-15T12:05:17.200Z,961.14
2019-02-15T12:06:17.203Z,961.13
2019-02-15T12:07:17.209Z,961.16
2019-02-15T12:08:17.211Z,961.17
2019-02-15T12:09:17.216Z,961.13
2019-02-15T12:10:17.237Z,961.09
2019-02-15T12:11:17.225Z,961.12
2019-02-15T12:12:17.231Z,961.12
2019-02-15T12:13:17.242Z,961.10
2019-02-15T12:14:17.239Z,961.10
2019-02-15T12:15:17.246Z,961.08
2019-02-15T12:16:17.252Z,961.09
2019-02-15T12:17:17.257Z,961.08
2019-02-15T12:18:17.260Z,961.02
2019-02-15T12:19:17.275Z,961.00
2019-02-15T12:20:17.271Z,960.95
2019-02-15T12:21:17.273Z,960.95
2019-02-15T12:22:17.278Z,960.91
2019-02-15T12:23:17.285Z,960.93
2019-02-15T12:24:17.288Z,960.93
2019-02-15T12:25:17.308Z,960.91
2019-02-15T12:26:17.299Z,960.83
2019-02-15T12:27:17.302Z,960.84
2019-02-15T12:28:17.306Z,960.83